Weather History for Orr, MN

Change the Weather History Date:

Saturday, September 29, 2012

  Actual Average Record
Temperature  
Mean Temperature 54 °F -  
Max Temperature 75 °F 55 °F 75 °F (2012)
Min Temperature 32 °F 35 °F 28 °F (1999)
Degree Days  
Heating Degree Days 12    
Growing Degree Days 4 (Base 50)    
Moisture  
Dew Point 37 °F    
Average Humidity 60    
Maximum Humidity 93    
Minimum Humidity 22    
Precipitation  
Precipitation 0.00 in - - ()
Sea Level Pressure  
Sea Level Pressure 30.07 in    
Wind  
Wind Speed 0 mph (SE)    
Max Wind Speed 5 mph    
Max Gust Speed -    
Visibility 10 miles    
Events      
Averages and records for this station are not official NWS values.
T = Trace of Precipitation, MM = Missing Value Source: NWS Daily Summary

Daily Weather History Graph

Daily Weather History Graph

Search for Another Location

Airport:

Trip Planner

Search our weather history database for the weather conditions in past years. The results will help you decide how hot, cold, wet, or windy it might be!

Date:

Astronomy

Sep. 29, 2012 Rise Set
Actual Time 7:08 AM CDT 6:53 PM CDT
Civil Twilight 6:37 AM CDT 7:24 PM CDT
Nautical Twilight 6:01 AM CDT 8:00 PM CDT
Astronomical Twilight 5:24 AM CDT 8:37 PM CDT
Moon 6:22 PM CDT (9/29) 6:41 AM CDT (9/29)
Length of Visible Light 12h 46m
Length of Day
11h 45m
Full, 100% of the Moon is Illuminated
Sep 29
Full
Sep 29
Full
Oct 8
Last Quarter
Oct 15
New
Oct 21
First Quarter

Hourly Weather History & Observations

Time (CDT) Temp. Dew Point Humidity Pressure Visibility Wind Dir Wind Speed Gust Speed Precip Events Conditions
12:13 AM 44.6 °F 39.2 °F 81% 30.09 in 10.0 mi Calm Calm - N/A   Clear
12:33 AM 44.6 °F 41.0 °F 87% 30.09 in 10.0 mi Calm Calm - N/A   Clear
12:53 AM 42.8 °F 39.2 °F 87% 30.09 in 10.0 mi Calm Calm - N/A   Clear
1:13 AM 44.6 °F 41.0 °F 87% 30.08 in 10.0 mi Calm Calm - N/A   Clear
1:33 AM 42.8 °F 39.2 °F 87% 30.08 in 10.0 mi Calm Calm - N/A   Clear
1:53 AM 44.6 °F 41.0 °F 87% 30.08 in 10.0 mi Calm Calm - N/A   Clear
2:13 AM 42.8 °F 39.2 °F 87% 30.09 in 10.0 mi Calm Calm - N/A   Clear
2:33 AM 37.4 °F 35.6 °F 93% 30.09 in 10.0 mi Calm Calm - N/A   Clear
2:53 AM 42.8 °F 39.2 °F 87% 30.08 in 10.0 mi Calm Calm - N/A   Clear
3:13 AM 37.4 °F 35.6 °F 93% 30.09 in 10.0 mi Calm Calm - N/A   Clear
3:33 AM 37.4 °F 35.6 °F 93% 30.09 in 10.0 mi Calm Calm - N/A   Clear
3:53 AM 37.4 °F 35.6 °F 93% 30.09 in 10.0 mi Calm Calm - N/A   Clear
4:13 AM 37.4 °F 35.6 °F 93% 30.09 in 10.0 mi Calm Calm - N/A   Clear
4:33 AM 39.2 °F 35.6 °F 87% 30.09 in 10.0 mi Calm Calm - N/A   Clear
4:53 AM 35.6 °F 33.8 °F 93% 30.09 in 10.0 mi Calm Calm - N/A   Clear
5:13 AM 33.8 °F 32.0 °F 93% 30.10 in 10.0 mi Calm Calm - N/A   Clear
5:33 AM 33.8 °F 32.0 °F 93% 30.10 in 10.0 mi Calm Calm - N/A   Clear
5:53 AM 33.8 °F 32.0 °F 93% 30.10 in 10.0 mi Calm Calm - N/A   Clear
6:13 AM 33.8 °F 32.0 °F 93% 30.10 in 10.0 mi Calm Calm - N/A   Clear
6:33 AM 33.8 °F 30.2 °F 87% 30.10 in 10.0 mi Calm Calm - N/A   Clear
6:53 AM 33.8 °F 30.2 °F 87% 30.11 in 10.0 mi Calm Calm - N/A   Clear
7:13 AM 32.0 °F 30.2 °F 93% 30.11 in 10.0 mi Calm Calm - N/A   Clear
7:33 AM 32.0 °F 30.2 °F 93% 30.11 in 10.0 mi Calm Calm - N/A   Clear
7:53 AM 35.6 °F 33.8 °F 93% 30.12 in 10.0 mi Calm Calm - N/A   Clear
8:13 AM 35.6 °F 33.8 °F 93% 30.12 in 10.0 mi Calm Calm - N/A   Clear
8:33 AM 37.4 °F 35.6 °F 93% 30.12 in 10.0 mi Calm Calm - N/A   Clear
8:53 AM 42.8 °F 39.2 °F 87% 30.13 in 10.0 mi Calm Calm - N/A   Clear
9:13 AM 48.2 °F 42.8 °F 82% 30.13 in 10.0 mi Calm Calm - N/A   Clear
9:33 AM 51.8 °F 42.8 °F 71% 30.13 in 10.0 mi Calm Calm - N/A   Clear
9:53 AM 55.4 °F 41.0 °F 58% 30.13 in 10.0 mi Calm Calm - N/A   Clear
10:13 AM 59.0 °F 41.0 °F 51% 30.13 in 10.0 mi Calm Calm - N/A   Clear
10:33 AM 62.6 °F 39.2 °F 42% 30.12 in 10.0 mi Calm Calm - N/A   Clear
10:53 AM 64.4 °F 39.2 °F 40% 30.12 in 10.0 mi Calm Calm - N/A   Clear
11:13 AM 66.2 °F 39.2 °F 37% 30.12 in 10.0 mi Calm Calm - N/A   Clear
11:33 AM 69.8 °F 37.4 °F 31% 30.11 in 10.0 mi Calm Calm - N/A   Clear
11:53 AM 69.8 °F 37.4 °F 31% 30.11 in 10.0 mi Calm Calm - N/A   Clear
12:13 PM 69.8 °F 37.4 °F 31% 30.11 in 10.0 mi Calm Calm - N/A   Clear
12:33 PM 69.8 °F 37.4 °F 31% 30.10 in 10.0 mi Calm Calm - N/A   Clear
12:53 PM 71.6 °F 35.6 °F 27% 30.10 in 10.0 mi Calm Calm - N/A   Clear
1:13 PM 71.6 °F 35.6 °F 27% 30.09 in 10.0 mi Calm Calm - N/A   Clear
1:33 PM 73.4 °F 35.6 °F 25% 30.09 in 10.0 mi Calm Calm - N/A   Clear
1:53 PM 73.4 °F 33.8 °F 23% 30.08 in 10.0 mi Calm Calm - N/A   Unknown
2:13 PM 73.4 °F 35.6 °F 25% 30.07 in 10.0 mi Calm Calm - N/A   Unknown
2:33 PM 73.4 °F 35.6 °F 25% 30.07 in 10.0 mi Calm Calm - N/A   Unknown
2:53 PM 73.4 °F 35.6 °F 25% 30.06 in 10.0 mi Calm Calm - N/A   Unknown
3:13 PM 75.2 °F 33.8 °F 22% 30.05 in 10.0 mi Calm Calm - N/A   Unknown
3:34 PM 75.2 °F 35.6 °F 24% 30.05 in 10.0 mi Calm Calm - N/A   Clear
3:53 PM 75.2 °F 35.6 °F 24% 30.04 in 10.0 mi Calm Calm - N/A   Clear
4:13 PM 75.2 °F 35.6 °F 24% 30.04 in 10.0 mi Calm Calm - N/A   Clear
4:33 PM 75.2 °F 33.8 °F 22% 30.03 in 10.0 mi Calm Calm - N/A   Clear
4:53 PM 73.4 °F 33.8 °F 23% 30.03 in 10.0 mi Calm Calm - N/A   Clear
5:13 PM 75.2 °F 33.8 °F 22% 30.03 in 10.0 mi Calm Calm - N/A   Clear
5:33 PM 73.4 °F 33.8 °F 23% 30.03 in 10.0 mi Calm Calm - N/A   Clear
5:53 PM 73.4 °F 35.6 °F 25% 30.03 in 10.0 mi Calm Calm - N/A   Clear
6:13 PM 71.6 °F 37.4 °F 29% 30.03 in 10.0 mi Calm Calm - N/A   Clear
6:33 PM 66.2 °F 39.2 °F 37% 30.02 in 10.0 mi Calm Calm - N/A   Clear
6:53 PM 62.6 °F 39.2 °F 42% 30.03 in 10.0 mi Calm Calm - N/A   Clear
7:13 PM 60.8 °F 39.2 °F 45% 30.02 in 10.0 mi Calm Calm - N/A   Clear
7:33 PM 57.2 °F 41.0 °F 55% 30.02 in 10.0 mi Calm Calm - N/A   Clear
7:53 PM 57.2 °F 41.0 °F 55% 30.02 in 10.0 mi Calm Calm - N/A   Clear
8:13 PM 55.4 °F 41.0 °F 58% 30.03 in 10.0 mi Calm Calm - N/A   Clear
8:33 PM 51.8 °F 41.0 °F 67% 30.03 in 10.0 mi Calm Calm - N/A   Clear
8:53 PM 48.2 °F 41.0 °F 76% 30.02 in 10.0 mi Calm Calm - N/A   Clear
9:13 PM 48.2 °F 41.0 °F 76% 30.03 in 10.0 mi Calm Calm - N/A   Clear
9:33 PM 48.2 °F 39.2 °F 71% 30.03 in 10.0 mi Calm Calm - N/A   Clear
9:53 PM 53.6 °F 39.2 °F 58% 30.03 in 10.0 mi Calm Calm - N/A   Clear
10:13 PM 55.4 °F 39.2 °F 54% 30.03 in 10.0 mi Calm Calm - N/A   Clear
10:33 PM 53.6 °F 39.2 °F 58% 30.03 in 10.0 mi Calm Calm - N/A   Clear
10:53 PM 53.6 °F 39.2 °F 58% 30.04 in 10.0 mi SE 3.5 mph - N/A   Clear
11:13 PM 51.8 °F 39.2 °F 62% 30.04 in 10.0 mi SE 4.6 mph - N/A   Clear
11:34 PM 51.8 °F 37.4 °F 58% 30.04 in 10.0 mi Calm Calm - N/A   Clear
11:53 PM 50.0 °F 37.4 °F 62% 30.04 in 10.0 mi Calm Calm - N/A   Clear